Time;durP1;ratioP1;P1;durP2;ratioP2;P2;SDS_P1;SDS_P2;PMS_P1;PMS_P2;Temp;Humidity;BMP_temperature;BMP_pressure;BME280_temperature;BME280_humidity;BME280_pressure;Samples;Min_cycle;Max_cycle;Signal;HPM_P1;HPM_P2
2023/07/29 00:01:01;;;;;;;;;;;;;;;16.93;100.00;100751.38;5063162;28;19955;-55
2023/07/29 00:03:26;;;;;;;;;;;;;;;16.94;100.00;100757.44;5063681;28;19929;-55
2023/07/29 00:05:51;;;;;;;;;;;;;;;16.95;100.00;100749.63;5058841;28;19952;-56
2023/07/29 00:08:16;;;;;;;;;;;;;;;16.96;100.00;100753.09;5045131;28;19920;-55
2023/07/29 00:10:42;;;;;;;;;;;;;;;16.96;100.00;100750.50;5065143;28;20410;-56
2023/07/29 00:13:07;;;;;;;;;;;;;;;16.97;100.00;100744.41;5049855;27;20317;-56
2023/07/29 00:15:32;;;;;;;;;;;;;;;16.97;100.00;100740.09;5065422;28;19924;-55
2023/07/29 00:17:58;;;;;;;;;;;;;;;16.99;100.00;100735.78;5065079;27;20120;-55
2023/07/29 00:20:23;;;;;;;;;;;;;;;16.98;100.00;100723.63;5067102;28;19921;-56
2023/07/29 00:22:50;;;;;;;;;;;;;;;16.97;100.00;100737.50;5063226;28;20338;-56
2023/07/29 00:25:15;;;;;;;;;;;;;;;16.95;100.00;100738.38;5065666;27;20015;-56
2023/07/29 00:27:41;;;;;;;;;;;;;;;16.93;100.00;100746.16;5064400;27;20023;-55
2023/07/29 00:30:07;;;;;;;;;;;;;;;16.93;100.00;100743.56;5065014;28;19986;-55
2023/07/29 00:32:32;;;;;;;;;;;;;;;16.95;100.00;100743.56;5064836;28;19927;-55
2023/07/29 00:35:00;;;;;;;;;;;;;;;16.94;100.00;100737.50;5063801;28;19924;-55
2023/07/29 00:37:26;;;;;;;;;;;;;;;16.94;100.00;100737.50;5062337;28;19939;-55
2023/07/29 00:39:51;;;;;;;;;;;;;;;16.94;100.00;100741.84;5058913;28;20378;-55
2023/07/29 00:42:16;;;;;;;;;;;;;;;16.96;100.00;100733.16;5060300;28;19966;-55
2023/07/29 00:44:41;;;;;;;;;;;;;;;16.97;100.00;100739.22;5059201;28;20028;-55
2023/07/29 00:47:07;;;;;;;;;;;;;;;16.97;100.00;100727.09;5060838;28;20653;-55
2023/07/29 00:49:32;;;;;;;;;;;;;;;16.96;100.00;100725.38;5059649;27;19925;-55
2023/07/29 00:51:57;;;;;;;;;;;;;;;16.97;100.00;100724.50;5059519;27;19944;-55
2023/07/29 00:54:23;;;;;;;;;;;;;;;16.96;100.00;100725.38;5061537;27;19921;-56
2023/07/29 00:56:48;;;;;;;;;;;;;;;16.95;100.00;100712.41;5058967;28;19920;-55
2023/07/29 00:59:13;;;;;;;;;;;;;;;16.91;100.00;100705.47;5059059;27;20347;-56
2023/07/29 01:01:38;;;;;;;;;;;;;;;16.88;100.00;100707.19;5054426;28;20461;-54
2023/07/29 01:04:04;;;;;;;;;;;;;;;16.85;100.00;100711.53;5056894;27;19921;-54
2023/07/29 01:06:34;;;;;;;;;;;;;;;16.84;100.00;100707.19;5063822;28;19921;-55
2023/07/29 01:09:05;;;;;;;;;;;;;;;16.80;100.00;100713.25;5059823;28;19925;-55
2023/07/29 01:11:30;;;;;;;;;;;;;;;16.81;100.00;100715.00;5062786;28;19995;-54
2023/07/29 01:14:02;;;;;;;;;;;;;;;16.81;100.00;100715.00;5057828;28;20375;-55
2023/07/29 01:16:42;;;;;;;;;;;;;;;16.81;100.00;100715.00;5061026;27;20788;-56
2023/07/29 01:19:13;;;;;;;;;;;;;;;16.78;100.00;100718.44;5060072;28;19943;-55
2023/07/29 01:21:38;;;;;;;;;;;;;;;16.75;100.00;100720.19;5059963;28;20390;-55
2023/07/29 01:24:04;;;;;;;;;;;;;;;16.74;100.00;100723.63;5044321;28;19920;-55
2023/07/29 01:26:29;;;;;;;;;;;;;;;16.71;100.00;100718.44;5044151;28;19978;-54
2023/07/29 01:28:56;;;;;;;;;;;;;;;16.69;100.00;100718.44;5060882;28;19924;-55
2023/07/29 01:31:33;;;;;;;;;;;;;;;16.67;100.00;100709.75;5060091;28;19921;-55
2023/07/29 01:34:06;;;;;;;;;;;;;;;16.69;100.00;100720.16;5059856;28;20370;-55
2023/07/29 01:36:32;;;;;;;;;;;;;;;16.71;100.00;100723.66;5059697;28;19956;-56
2023/07/29 01:38:59;;;;;;;;;;;;;;;16.70;100.00;100716.69;5057346;27;19931;-55
2023/07/29 01:41:24;;;;;;;;;;;;;;;16.70;100.00;100722.78;5058301;28;19917;-55
2023/07/29 01:43:50;;;;;;;;;;;;;;;16.72;100.00;100720.19;5056178;28;19924;-45
2023/07/29 01:46:16;;;;;;;;;;;;;;;16.73;100.00;100725.38;5057288;28;19917;-49
2023/07/29 01:48:41;;;;;;;;;;;;;;;16.77;100.00;100729.69;5060390;28;19986;-45
2023/07/29 01:51:06;;;;;;;;;;;;;;;16.79;100.00;100730.56;5040183;27;19928;-47
2023/07/29 01:53:32;;;;;;;;;;;;;;;16.82;100.00;100724.53;5055439;27;20374;-45
2023/07/29 01:55:57;;;;;;;;;;;;;;;16.86;100.00;100732.28;5056270;28;19927;-45
2023/07/29 01:58:23;;;;;;;;;;;;;;;16.89;100.00;100728.84;5055867;28;20346;-45
2023/07/29 02:00:48;;;;;;;;;;;;;;;16.93;100.00;100727.09;5059229;28;19946;-48
2023/07/29 02:03:13;;;;;;;;;;;;;;;16.97;100.00;100729.69;5060849;28;19925;-45
2023/07/29 02:05:39;;;;;;;;;;;;;;;17.04;100.00;100725.38;5052170;28;19965;-46
2023/07/29 02:08:04;;;;;;;;;;;;;;;17.07;100.00;100730.56;5059112;28;19920;-46
2023/07/29 02:10:29;;;;;;;;;;;;;;;17.13;100.00;100722.78;5059208;28;20019;-45
2023/07/29 02:12:55;;;;;;;;;;;;;;;17.16;100.00;100721.03;5058773;27;20310;-46
2023/07/29 02:15:20;;;;;;;;;;;;;;;17.19;100.00;100721.91;5044286;28;20011;-46
2023/07/29 02:17:45;;;;;;;;;;;;;;;17.16;100.00;100710.63;5063805;27;19920;-46
2023/07/29 02:20:10;;;;;;;;;;;;;;;17.16;100.00;100718.41;5062636;28;19912;-45
2023/07/29 02:22:36;;;;;;;;;;;;;;;17.15;100.00;100711.50;5073499;28;19924;-46
2023/07/29 02:25:01;;;;;;;;;;;;;;;17.14;100.00;100701.13;5060940;28;20727;-45
2023/07/29 02:27:27;;;;;;;;;;;;;;;17.11;100.00;100708.94;5063992;28;19980;-45
2023/07/29 02:29:53;;;;;;;;;;;;;;;17.07;100.00;100707.19;5058159;27;19966;-46
2023/07/29 02:32:19;;;;;;;;;;;;;;;17.00;100.00;100702.88;5062415;28;19986;-45
2023/07/29 02:34:44;;;;;;;;;;;;;;;16.95;100.00;100702.00;5060997;28;19928;-46
2023/07/29 02:37:09;;;;;;;;;;;;;;;16.88;100.00;100699.41;5063104;28;20393;-45
2023/07/29 02:39:34;;;;;;;;;;;;;;;16.83;100.00;100700.28;5061280;28;20015;-47
2023/07/29 02:42:00;;;;;;;;;;;;;;;16.78;100.00;100699.41;5063048;27;19943;-47
2023/07/29 02:44:25;;;;;;;;;;;;;;;16.74;100.00;100697.66;5060620;28;19920;-47
2023/07/29 02:46:52;;;;;;;;;;;;;;;16.72;100.00;100702.88;5042071;27;20528;-47
2023/07/29 02:49:17;;;;;;;;;;;;;;;16.66;100.00;100705.44;5058068;28;19981;-46
2023/07/29 02:51:42;;;;;;;;;;;;;;;16.63;100.00;100701.13;5057718;28;20005;-50
2023/07/29 02:54:07;;;;;;;;;;;;;;;16.57;100.00;100697.66;5059101;27;19928;-47
2023/07/29 02:56:33;;;;;;;;;;;;;;;16.55;100.00;100687.25;5055091;28;19921;-47
2023/07/29 02:58:58;;;;;;;;;;;;;;;16.52;100.00;100704.56;5056321;28;20538;-47
2023/07/29 03:01:25;;;;;;;;;;;;;;;16.49;100.00;100702.81;5057653;28;19936;-47
2023/07/29 03:03:50;;;;;;;;;;;;;;;16.45;100.00;100693.31;5061469;28;19952;-54
2023/07/29 03:06:15;;;;;;;;;;;;;;;16.42;100.00;100698.47;5058171;27;20446;-55
2023/07/29 03:08:41;;;;;;;;;;;;;;;16.40;100.00;100695.03;5040037;28;19920;-55
2023/07/29 03:11:10;;;;;;;;;;;;;;;16.39;100.00;100695.03;5057848;28;19920;-55
2023/07/29 03:13:35;;;;;;;;;;;;;;;16.36;100.00;100701.06;5052048;27;19921;-56
2023/07/29 03:16:14;;;;;;;;;;;;;;;16.33;100.00;100698.47;5051955;28;19921;-56
2023/07/29 03:18:39;;;;;;;;;;;;;;;16.31;100.00;100695.84;5049466;28;19925;-56
2023/07/29 03:21:05;;;;;;;;;;;;;;;16.31;100.00;100695.00;5049900;28;19921;-55
2023/07/29 03:23:30;;;;;;;;;;;;;;;16.29;100.00;100694.13;5050165;28;19924;-55
2023/07/29 03:25:58;;;;;;;;;;;;;;;16.27;100.00;100701.06;5036426;27;20362;-54
2023/07/29 03:28:27;;;;;;;;;;;;;;;16.26;100.00;100696.72;5054505;28;19939;-56
2023/07/29 03:30:53;;;;;;;;;;;;;;;16.24;100.00;100709.69;5052528;28;20399;-55
2023/07/29 03:33:18;;;;;;;;;;;;;;;16.21;100.00;100709.69;5053219;28;19921;-56
2023/07/29 03:35:44;;;;;;;;;;;;;;;16.19;100.00;100715.72;5055759;28;19920;-55
2023/07/29 03:38:10;;;;;;;;;;;;;;;16.16;100.00;100710.53;5061643;27;19944;-55
2023/07/29 03:40:35;;;;;;;;;;;;;;;16.13;100.00;100708.78;5054921;28;19924;-54
2023/07/29 03:43:01;;;;;;;;;;;;;;;16.11;100.00;100714.84;5055103;27;19925;-56
2023/07/29 03:45:26;;;;;;;;;;;;;;;16.08;100.00;100713.97;5052651;28;20030;-56
2023/07/29 03:47:51;;;;;;;;;;;;;;;16.06;100.00;100709.63;5051243;28;20061;-56
2023/07/29 03:50:16;;;;;;;;;;;;;;;16.02;100.00;100703.59;5054726;28;19928;-55
2023/07/29 03:52:42;;;;;;;;;;;;;;;16.02;100.00;100700.13;5052301;28;20358;-55
2023/07/29 03:55:07;;;;;;;;;;;;;;;16.01;100.00;100700.97;5036056;28;19924;-56
2023/07/29 03:57:32;;;;;;;;;;;;;;;16.01;100.00;100698.38;5051718;28;19980;-55
2023/07/29 03:59:58;;;;;;;;;;;;;;;16.00;100.00;100691.47;5051549;28;19964;-55
2023/07/29 04:02:23;;;;;;;;;;;;;;;15.97;100.00;100678.50;5055561;28;19928;-56
2023/07/29 04:04:48;;;;;;;;;;;;;;;15.95;100.00;100665.50;5051718;28;21431;-55
2023/07/29 04:07:14;;;;;;;;;;;;;;;15.92;100.00;100657.72;5034457;27;19974;-55
2023/07/29 04:09:39;;;;;;;;;;;;;;;15.89;100.00;100662.91;5032679;27;20259;-54
2023/07/29 04:12:04;;;;;;;;;;;;;;;15.91;100.00;100665.50;5054159;28;19966;-55
2023/07/29 04:14:30;;;;;;;;;;;;;;;15.89;100.00;100668.06;5066456;27;19924;-56
2023/07/29 04:16:55;;;;;;;;;;;;;;;15.88;100.00;100670.69;5063922;28;19963;-56
2023/07/29 04:19:20;;;;;;;;;;;;;;;15.87;100.00;100662.03;5068201;27;19921;-56
2023/07/29 04:21:46;;;;;;;;;;;;;;;15.87;100.00;100671.53;5063469;28;19917;-55
2023/07/29 04:24:13;;;;;;;;;;;;;;;15.87;100.00;100692.28;5063425;28;20316;-56
2023/07/29 04:26:39;;;;;;;;;;;;;;;15.87;100.00;100700.94;5065603;28;19962;-56
2023/07/29 04:29:04;;;;;;;;;;;;;;;15.86;100.00;100709.56;5064210;28;19920;-56
2023/07/29 04:31:29;;;;;;;;;;;;;;;15.89;100.00;100719.06;5066050;28;19936;-54
2023/07/29 04:33:55;;;;;;;;;;;;;;;15.87;100.00;100726.00;5062947;27;20384;-55
2023/07/29 04:36:20;;;;;;;;;;;;;;;15.88;100.00;100730.31;5064971;28;20334;-55
2023/07/29 04:38:45;;;;;;;;;;;;;;;15.87;100.00;100732.03;5065913;27;19937;-55
2023/07/29 04:41:11;;;;;;;;;;;;;;;15.87;100.00;100716.47;5041589;28;20445;-56
2023/07/29 04:43:36;;;;;;;;;;;;;;;15.90;100.00;100716.50;5059452;28;19916;-53
2023/07/29 04:46:01;;;;;;;;;;;;;;;15.91;100.00;100723.44;5058167;28;22058;-55
2023/07/29 04:48:27;;;;;;;;;;;;;;;15.92;100.00;100724.28;5060061;28;19923;-55
2023/07/29 04:50:52;;;;;;;;;;;;;;;15.96;100.00;100732.09;5059366;27;19939;-56
2023/07/29 04:53:17;;;;;;;;;;;;;;;15.98;100.00;100725.19;5058429;27;19924;-55
2023/07/29 04:55:43;;;;;;;;;;;;;;;16.02;100.00;100724.34;5060146;28;19927;-55
2023/07/29 04:58:08;;;;;;;;;;;;;;;16.04;100.00;100730.38;5057492;28;19920;-55
2023/07/29 05:00:34;;;;;;;;;;;;;;;16.09;100.00;100720.03;5059910;28;19929;-57
2023/07/29 05:02:59;;;;;;;;;;;;;;;16.11;100.00;100726.09;5059265;28;19928;-56
2023/07/29 05:05:24;;;;;;;;;;;;;;;16.15;100.00;100724.38;5057681;28;19916;-56
2023/07/29 05:07:49;;;;;;;;;;;;;;;16.15;100.00;100732.16;5059149;28;19920;-54
2023/07/29 05:10:15;;;;;;;;;;;;;;;16.17;100.00;100739.06;5056618;28;19986;-56
2023/07/29 05:12:40;;;;;;;;;;;;;;;16.19;100.00;100736.47;5058451;27;20282;-55
2023/07/29 05:15:05;;;;;;;;;;;;;;;16.22;100.00;100741.69;5053414;28;19929;-56
2023/07/29 05:17:31;;;;;;;;;;;;;;;16.23;100.00;100738.22;5054291;28;20361;-56
2023/07/29 05:19:56;;;;;;;;;;;;;;;16.26;100.00;100744.31;5059124;28;19921;-56
2023/07/29 05:22:21;;;;;;;;;;;;;;;16.30;100.00;100756.41;5059484;28;19921;-56
2023/07/29 05:24:47;;;;;;;;;;;;;;;16.35;100.00;100753.81;5040773;28;19916;-56
2023/07/29 05:27:12;;;;;;;;;;;;;;;16.39;100.00;100752.13;5058903;27;19944;-55
2023/07/29 05:29:37;;;;;;;;;;;;;;;16.43;100.00;100746.06;5058431;27;20375;-56
2023/07/29 05:32:02;;;;;;;;;;;;;;;16.46;100.00;100743.47;5061408;28;19927;-55
2023/07/29 05:34:28;;;;;;;;;;;;;;;16.54;100.00;100745.22;5059030;27;19924;-56
2023/07/29 05:36:53;;;;;;;;;;;;;;;16.53;100.00;100740.03;5037911;28;19948;-55
2023/07/29 05:39:18;;;;;;;;;;;;;;;16.61;100.00;100736.56;5059603;28;19932;-56
2023/07/29 05:41:44;;;;;;;;;;;;;;;16.77;100.00;100736.63;5059699;28;19952;-55
2023/07/29 05:44:09;;;;;;;;;;;;;;;16.83;100.00;100739.22;5040455;28;19925;-55
2023/07/29 05:46:34;;;;;;;;;;;;;;;16.83;100.00;100742.69;5058099;28;19971;-57
2023/07/29 05:48:59;;;;;;;;;;;;;;;16.89;100.00;100740.09;5057682;28;20407;-54
2023/07/29 05:51:25;;;;;;;;;;;;;;;17.18;100.00;100743.56;5056005;27;19990;-55
2023/07/29 05:53:50;;;;;;;;;;;;;;;17.77;100.00;100737.38;5061189;28;19921;-56
2023/07/29 05:56:15;;;;;;;;;;;;;;;18.34;100.00;100744.06;5060124;28;19952;-56
2023/07/29 05:58:40;;;;;;;;;;;;;;;18.82;100.00;100743.78;5056375;28;19932;-57
2023/07/29 06:01:06;;;;;;;;;;;;;;;19.23;100.00;100749.53;5059851;28;19921;-56
2023/07/29 06:03:31;;;;;;;;;;;;;;;19.53;98.02;100753.53;5062346;27;20051;-56
2023/07/29 06:05:56;;;;;;;;;;;;;;;19.56;100.00;100752.66;5060996;28;20429;-57
2023/07/29 06:08:21;;;;;;;;;;;;;;;19.61;100.00;100750.91;5061529;28;19920;-56
2023/07/29 06:10:47;;;;;;;;;;;;;;;19.63;100.00;100750.88;5058555;28;19924;-56
2023/07/29 06:13:12;;;;;;;;;;;;;;;19.63;100.00;100761.31;5062969;28;19999;-56
2023/07/29 06:15:37;;;;;;;;;;;;;;;19.46;98.52;100770.13;5062203;27;19955;-55
2023/07/29 06:18:02;;;;;;;;;;;;;;;19.35;100.00;100763.28;5062147;28;19912;-54
2023/07/29 06:20:28;;;;;;;;;;;;;;;19.07;98.96;100766.16;5059749;28;20656;-55
2023/07/29 06:22:53;;;;;;;;;;;;;;;18.83;100.00;100758.53;5057921;28;19920;-56
2023/07/29 06:25:18;;;;;;;;;;;;;;;18.66;100.00;100756.88;5062693;28;20380;-55
2023/07/29 06:27:44;;;;;;;;;;;;;;;18.52;100.00;100752.66;5061649;28;19979;-56
2023/07/29 06:30:09;;;;;;;;;;;;;;;18.46;100.00;100753.56;5057938;27;20027;-56
2023/07/29 06:32:34;;;;;;;;;;;;;;;18.48;100.00;100754.41;5056881;27;19917;-56
2023/07/29 06:35:00;;;;;;;;;;;;;;;18.38;100.00;100750.09;5059160;28;20294;-56
2023/07/29 06:37:25;;;;;;;;;;;;;;;18.34;100.00;100761.44;5046725;28;19916;-56
2023/07/29 06:39:50;;;;;;;;;;;;;;;18.29;100.00;100753.63;5047380;27;19940;-57
2023/07/29 06:42:15;;;;;;;;;;;;;;;18.46;100.00;100756.16;5057440;27;19932;-55
2023/07/29 06:44:41;;;;;;;;;;;;;;;18.78;100.00;100755.09;5054322;28;19929;-55
2023/07/29 06:47:06;;;;;;;;;;;;;;;19.17;100.00;100751.28;5035628;28;19925;-56
2023/07/29 06:49:32;;;;;;;;;;;;;;;19.70;100.00;100756.00;5051577;27;20382;-56
2023/07/29 06:51:57;;;;;;;;;;;;;;;20.16;97.08;100745.03;5033865;28;19936;-56
2023/07/29 06:54:26;;;;;;;;;;;;;;;20.48;99.77;100749.81;5054508;28;19927;-55
2023/07/29 06:56:52;;;;;;;;;;;;;;;20.72;95.64;100750.34;5052118;28;19952;-56
2023/07/29 06:59:17;;;;;;;;;;;;;;;20.89;93.13;100758.78;5049697;28;19974;-55
2023/07/29 07:01:43;;;;;;;;;;;;;;;20.84;90.77;100765.84;5052137;28;20036;-56
2023/07/29 07:04:08;;;;;;;;;;;;;;;20.71;90.91;100766.91;5048394;28;20003;-56
2023/07/29 07:06:33;;;;;;;;;;;;;;;20.81;92.55;100763.25;5051113;28;20035;-56
2023/07/29 07:08:58;;;;;;;;;;;;;;;20.78;95.71;100764.19;5050289;28;19928;-57
2023/07/29 07:11:24;;;;;;;;;;;;;;;20.66;93.43;100769.59;5052309;28;20547;-56
2023/07/29 07:13:49;;;;;;;;;;;;;;;20.70;97.50;100767.81;5048238;28;19950;-56
2023/07/29 07:16:14;;;;;;;;;;;;;;;20.69;93.12;100773.91;5051356;27;19927;-55
2023/07/29 07:18:39;;;;;;;;;;;;;;;20.65;94.78;100772.25;5049526;28;19921;-55
2023/07/29 07:21:05;;;;;;;;;;;;;;;20.62;95.13;100774.00;5047870;28;20382;-56
2023/07/29 07:23:30;;;;;;;;;;;;;;;20.54;93.99;100773.25;5067433;28;19920;-55
2023/07/29 07:25:55;;;;;;;;;;;;;;;20.43;94.50;100772.50;5053729;27;19928;-54
2023/07/29 07:28:21;;;;;;;;;;;;;;;20.30;95.22;100768.34;5050333;28;19932;-55
2023/07/29 07:30:46;;;;;;;;;;;;;;;20.34;93.14;100776.13;5048574;28;19975;-56
2023/07/29 07:33:11;;;;;;;;;;;;;;;20.29;92.77;100777.91;5049606;28;19971;-55
2023/07/29 07:35:36;;;;;;;;;;;;;;;20.15;91.70;100782.47;5047189;28;19937;-57
2023/07/29 07:38:03;;;;;;;;;;;;;;;19.98;94.75;100785.28;5049300;28;19928;-55
2023/07/29 07:40:29;;;;;;;;;;;;;;;19.94;94.16;100788.78;5056310;28;20452;-55
2023/07/29 07:42:54;;;;;;;;;;;;;;;19.85;94.34;100795.88;5055217;27;19960;-56
2023/07/29 07:45:19;;;;;;;;;;;;;;;19.71;94.51;100804.69;5052160;28;19924;-56
2023/07/29 07:47:45;;;;;;;;;;;;;;;19.59;96.21;100799.59;5048459;28;19932;-55
2023/07/29 07:50:10;;;;;;;;;;;;;;;19.54;96.62;100804.84;5062818;27;20691;-56
2023/07/29 07:52:35;;;;;;;;;;;;;;;19.47;96.86;100802.28;5046822;28;20287;-56
2023/07/29 07:55:00;;;;;;;;;;;;;;;19.49;96.75;100803.16;5058422;27;19921;-56
2023/07/29 07:57:26;;;;;;;;;;;;;;;19.50;97.10;100803.13;5053066;27;19921;-56
2023/07/29 07:59:52;;;;;;;;;;;;;;;19.50;96.81;100803.13;5031672;28;19920;-55
2023/07/29 08:02:18;;;;;;;;;;;;;;;19.51;96.64;100809.22;5055523;28;19928;-56
2023/07/29 08:04:43;;;;;;;;;;;;;;;19.54;97.67;100804.84;5051724;27;19936;-55
2023/07/29 08:07:08;;;;;;;;;;;;;;;19.74;96.51;100790.75;5048741;28;19935;-55
2023/07/29 08:09:33;;;;;;;;;;;;;;;20.03;96.33;100790.44;5052798;27;19916;-55
2023/07/29 08:11:59;;;;;;;;;;;;;;;20.35;94.55;100798.72;5056156;28;20280;-56
2023/07/29 08:14:24;;;;;;;;;;;;;;;20.65;91.15;100796.63;5053089;27;19931;-56
2023/07/29 08:16:49;;;;;;;;;;;;;;;20.98;93.39;100794.38;5032904;27;19924;-56
2023/07/29 08:19:14;;;;;;;;;;;;;;;21.30;88.98;100799.97;5050272;28;20000;-55
2023/07/29 08:21:40;;;;;;;;;;;;;;;21.27;88.55;100799.13;5050272;27;19917;-56
2023/07/29 08:24:07;;;;;;;;;;;;;;;21.03;86.25;100796.03;5059667;27;20370;-56
2023/07/29 08:26:32;;;;;;;;;;;;;;;20.98;88.14;100797.84;5058865;27;20457;-56
2023/07/29 08:28:57;;;;;;;;;;;;;;;20.93;89.46;100790.94;5030242;28;20015;-55
2023/07/29 08:31:22;;;;;;;;;;;;;;;20.98;88.78;100794.38;5048819;27;19937;-55
2023/07/29 08:33:48;;;;;;;;;;;;;;;21.05;86.37;100799.50;5054303;28;19929;-56
2023/07/29 08:36:13;;;;;;;;;;;;;;;21.19;87.90;100796.66;5052983;28;19925;-55
2023/07/29 08:38:38;;;;;;;;;;;;;;;21.35;88.52;100792.88;5050756;28;19932;-55
2023/07/29 08:41:09;;;;;;;;;;;;;;;21.58;87.26;100783.78;5051997;28;20015;-55
2023/07/29 08:43:38;;;;;;;;;;;;;;;21.72;87.82;100791.34;5053413;27;19928;-56
2023/07/29 08:46:03;;;;;;;;;;;;;;;21.92;87.57;100792.72;5055894;27;19928;-55
2023/07/29 08:48:34;;;;;;;;;;;;;;;21.93;83.69;100789.19;5074203;27;20423;-56
2023/07/29 08:51:01;;;;;;;;;;;;;;;21.85;84.73;100790.25;5057236;27;19958;-56
2023/07/29 08:53:27;;;;;;;;;;;;;;;21.83;85.71;100792.88;5053066;27;19957;-57
2023/07/29 08:55:53;;;;;;;;;;;;;;;21.89;83.25;100789.28;5047840;27;19920;-57
2023/07/29 08:58:19;;;;;;;;;;;;;;;21.97;81.28;100797.88;5054992;28;19932;-56
2023/07/29 09:00:45;;;;;;;;;;;;;;;22.11;81.43;100785.38;5050368;27;20606;-55
2023/07/29 09:03:10;;;;;;;;;;;;;;;22.26;80.62;100792.03;5055891;28;20129;-57
2023/07/29 09:05:35;;;;;;;;;;;;;;;22.43;80.25;100792.53;5055120;27;19947;-47
2023/07/29 09:08:02;;;;;;;;;;;;;;;22.56;78.97;100792.25;5053396;28;20000;-48
2023/07/29 09:10:27;;;;;;;;;;;;;;;22.72;83.00;100786.66;5051738;27;20011;-47
2023/07/29 09:12:53;;;;;;;;;;;;;;;22.76;74.14;100795.31;5053603;28;20029;-46
2023/07/29 09:15:28;;;;;;;;;;;;;;;22.76;77.70;100787.44;5050813;28;20417;-49
2023/07/29 09:17:53;;;;;;;;;;;;;;;22.73;80.25;100785.75;5031245;28;19927;-49
2023/07/29 09:20:23;;;;;;;;;;;;;;;22.73;77.38;100780.50;5050857;28;19921;-47
2023/07/29 09:22:48;;;;;;;;;;;;;;;22.77;76.58;100778.69;5049543;28;19920;-46
2023/07/29 09:25:16;;;;;;;;;;;;;;;22.79;76.61;100778.63;5049116;28;20065;-49
2023/07/29 09:27:41;;;;;;;;;;;;;;;22.80;74.10;100762.88;5051165;27;20307;-50
2023/07/29 09:30:15;;;;;;;;;;;;;;;22.74;74.53;100766.50;5050962;28;19928;-50
2023/07/29 09:32:41;;;;;;;;;;;;;;;22.79;74.37;100763.78;5051367;28;19939;-50
2023/07/29 09:35:09;;;;;;;;;;;;;;;22.74;73.78;100771.75;5056407;27;19939;-48
2023/07/29 09:37:34;;;;;;;;;;;;;;;22.84;76.42;100784.63;5049572;28;20294;-50
2023/07/29 09:40:00;;;;;;;;;;;;;;;23.00;75.33;100781.66;5050360;28;19934;-47
2023/07/29 09:42:25;;;;;;;;;;;;;;;22.93;72.67;100766.09;5051527;28;19928;-49
2023/07/29 09:44:50;;;;;;;;;;;;;;;22.81;73.97;100768.97;5049081;28;19929;-51
2023/07/29 09:47:23;;;;;;;;;;;;;;;22.75;73.29;100777.84;5049765;27;19929;-50
2023/07/29 09:49:48;;;;;;;;;;;;;;;22.86;74.34;100767.97;5050135;28;19924;-49
2023/07/29 09:52:17;;;;;;;;;;;;;;;23.13;71.75;100776.97;5052456;27;19928;-50
2023/07/29 09:54:43;;;;;;;;;;;;;;;23.36;75.18;100784.25;5047384;28;20438;-49
2023/07/29 09:57:08;;;;;;;;;;;;;;;23.43;71.26;100779.69;5050964;28;19941;-49
2023/07/29 09:59:34;;;;;;;;;;;;;;;23.52;70.76;100777.69;5048724;28;20438;-47
2023/07/29 10:01:59;;;;;;;;;;;;;;;23.41;70.79;100774.47;5049875;28;19968;-50
2023/07/29 10:04:25;;;;;;;;;;;;;;;23.39;69.98;100776.28;5048302;28;20324;-51
2023/07/29 10:06:52;;;;;;;;;;;;;;;23.54;73.11;100780.28;5065261;28;19924;-47
2023/07/29 10:09:18;;;;;;;;;;;;;;;23.86;73.78;100779.41;5051050;27;19928;-49
2023/07/29 10:11:43;;;;;;;;;;;;;;;24.00;67.10;100779.88;5049651;28;20011;-49
2023/07/29 10:14:08;;;;;;;;;;;;;;;23.93;69.38;100770.47;5047284;28;20408;-51
2023/07/29 10:16:35;;;;;;;;;;;;;;;23.90;67.76;100775.78;5032800;28;19932;-49
2023/07/29 10:19:01;;;;;;;;;;;;;;;24.11;70.28;100776.09;5048580;28;19983;-50
2023/07/29 10:21:26;;;;;;;;;;;;;;;24.23;68.47;100771.34;5049789;28;19920;-47
2023/07/29 10:23:53;;;;;;;;;;;;;;;24.17;68.32;100774.16;5054594;28;19921;-49
2023/07/29 10:26:20;;;;;;;;;;;;;;;24.14;67.36;100768.97;5047757;28;19925;-47
2023/07/29 10:28:47;;;;;;;;;;;;;;;24.02;67.31;100770.19;5049627;28;19921;-46
2023/07/29 10:31:12;;;;;;;;;;;;;;;24.03;67.40;100763.19;5050892;28;19932;-45
2023/07/29 10:33:38;;;;;;;;;;;;;;;23.84;67.97;100762.81;5047956;28;19917;-47
2023/07/29 10:36:04;;;;;;;;;;;;;;;23.84;69.44;100752.31;5052232;28;19920;-48
2023/07/29 10:38:29;;;;;;;;;;;;;;;24.01;70.21;100755.34;5052346;28;20306;-50
2023/07/29 10:40:56;;;;;;;;;;;;;;;24.14;70.26;100758.44;5049340;28;19976;-48
2023/07/29 10:43:25;;;;;;;;;;;;;;;24.27;68.73;100756.34;5051561;28;19917;-49
2023/07/29 10:45:51;;;;;;;;;;;;;;;24.29;67.22;100751.91;5051746;28;20291;-47
2023/07/29 10:48:35;;;;;;;;;;;;;;;24.29;69.38;100755.38;5048032;28;19921;-46
2023/07/29 10:51:19;;;;;;;;;;;;;;;24.55;65.46;100738.81;5050732;28;19947;-47
2023/07/29 10:53:44;;;;;;;;;;;;;;;24.74;65.06;100744.34;5050879;28;19921;-47
2023/07/29 10:56:09;;;;;;;;;;;;;;;24.68;66.89;100746.31;5049746;28;19987;-49
2023/07/29 10:58:34;;;;;;;;;;;;;;;24.51;63.00;100739.84;5051158;27;19921;-51
2023/07/29 11:01:00;;;;;;;;;;;;;;;24.30;63.18;100743.09;5048782;28;20492;-50
2023/07/29 11:03:28;;;;;;;;;;;;;;;24.08;65.39;100749.00;5049216;28;22164;-49
2023/07/29 11:05:54;;;;;;;;;;;;;;;24.04;67.24;100750.00;5051675;28;19928;-50
2023/07/29 11:08:21;;;;;;;;;;;;;;;23.97;67.30;100752.88;5050571;28;20165;-47
2023/07/29 11:11:03;;;;;;;;;;;;;;;23.99;69.81;100746.66;5049830;28;20408;-50
2023/07/29 11:13:29;;;;;;;;;;;;;;;23.94;67.94;100750.31;5048357;28;19917;-49
2023/07/29 11:15:56;;;;;;;;;;;;;;;23.81;67.30;100753.28;5048206;27;20031;-47
2023/07/29 11:18:21;;;;;;;;;;;;;;;23.67;68.23;100749.34;5053402;27;19965;-50
2023/07/29 11:20:47;;;;;;;;;;;;;;;23.48;70.02;100748.94;5051871;28;19916;-51
2023/07/29 11:23:13;;;;;;;;;;;;;;;23.40;70.63;100758.78;5053390;28;20370;-48
2023/07/29 11:25:39;;;;;;;;;;;;;;;23.33;70.04;100762.47;5052339;28;19982;-49
2023/07/29 11:28:04;;;;;;;;;;;;;;;23.25;70.89;100757.44;5048052;28;19933;-50
2023/07/29 11:30:30;;;;;;;;;;;;;;;23.19;70.38;100762.84;5054108;28;19932;-56
2023/07/29 11:32:57;;;;;;;;;;;;;;;23.12;71.26;100758.66;5032751;28;19920;-56
2023/07/29 11:35:22;;;;;;;;;;;;;;;23.05;71.15;100759.69;5050081;28;19948;-57
2023/07/29 11:37:49;;;;;;;;;;;;;;;23.05;70.94;100760.53;5050450;28;20399;-57
2023/07/29 11:40:15;;;;;;;;;;;;;;;22.94;73.53;100768.69;5048701;28;19944;-56
2023/07/29 11:42:40;;;;;;;;;;;;;;;22.75;74.47;100768.25;5049748;28;19921;-56
2023/07/29 11:45:06;;;;;;;;;;;;;;;22.62;75.29;100765.91;5053875;28;20012;-57
2023/07/29 11:47:35;;;;;;;;;;;;;;;22.66;75.52;100764.97;5055474;28;19974;-56
2023/07/29 11:50:01;;;;;;;;;;;;;;;22.73;75.76;100766.53;5054647;28;20007;-48
2023/07/29 11:52:26;;;;;;;;;;;;;;;;;;5055181;28;20031;-48
2023/07/29 11:54:52;;;;;;;;;;;;;;;22.91;76.31;100778.38;5056113;27;20336;-50
2023/07/29 11:57:20;;;;;;;;;;;;;;;22.77;77.03;100783.06;5054837;28;19917;-50
2023/07/29 11:59:46;;;;;;;;;;;;;;;22.02;80.41;100761.94;5056366;27;20388;-50
2023/07/29 12:02:13;;;;;;;;;;;;;;;21.53;83.59;100756.81;5051653;28;19932;-47
2023/07/29 12:04:38;;;;;;;;;;;;;;;21.18;85.59;100760.94;5045265;28;19959;-48
2023/07/29 12:07:04;;;;;;;;;;;;;;;20.89;89.64;100754.44;5049468;28;22051;-48
2023/07/29 12:09:30;;;;;;;;;;;;;;;20.50;88.42;100766.31;5053269;28;20286;-50
2023/07/29 12:11:56;;;;;;;;;;;;;;;20.05;90.15;100752.13;5034842;28;20015;-49
2023/07/29 12:14:22;;;;;;;;;;;;;;;19.70;99.13;100760.38;5054223;28;20016;-47
2023/07/29 12:16:51;;;;;;;;;;;;;;;19.46;95.92;100771.88;5055460;28;20308;-48
2023/07/29 12:19:17;;;;;;;;;;;;;;;19.21;99.38;100769.50;5056647;28;19943;-47
2023/07/29 12:21:43;;;;;;;;;;;;;;;19.09;100.00;100784.38;5062443;27;20399;-48
2023/07/29 12:24:08;;;;;;;;;;;;;;;19.02;100.00;100799.22;5053474;28;19925;-45
2023/07/29 12:26:35;;;;;;;;;;;;;;;18.98;100.00;100816.59;5055018;28;19925;-48